Terminal Aerodrome Forecast
Issued by NWS Jackson, MS

Home | Current Version | Previous Version | Text Only | Print | Product List | Glossary On
Versions: 1 2 3 4 5 6 7 8 9 10 11 12 13
000
FTUS44 KJAN 221732
TAFJAN
TAF
KJAN 221732Z 2218/2318 00000KT P6SM FEW070 SCT100 BKN120
     FM222300 26011G17KT 5SM -SHRA BKN035 OVC050
     FM230300 29011G18KT 5SM BR OVC009
     FM231500 32013G19KT P6SM OVC015=

USA.gov is the U.S. government's official web portal to all federal, state and local government web resources and services.